sensor_id;sensor_type;location;lat;lon;timestamp;temperature;humidity
25450;DHT22;13371;52.080;5.624;2022-10-13T00:01:24;13.50;94.40
25450;DHT22;13371;52.080;5.624;2022-10-13T00:03:50;13.30;95.10
25450;DHT22;13371;52.080;5.624;2022-10-13T00:06:18;13.30;94.80
25450;DHT22;13371;52.080;5.624;2022-10-13T00:08:45;13.50;94.80
25450;DHT22;13371;52.080;5.624;2022-10-13T00:11:22;13.60;94.80
25450;DHT22;13371;52.080;5.624;2022-10-13T00:13:48;13.50;94.60
25450;DHT22;13371;52.080;5.624;2022-10-13T00:16:17;13.30;94.90
25450;DHT22;13371;52.080;5.624;2022-10-13T00:18:43;13.40;95.20
25450;DHT22;13371;52.080;5.624;2022-10-13T00:21:12;13.20;94.80
25450;DHT22;13371;52.080;5.624;2022-10-13T00:23:38;13.40;95.30
25450;DHT22;13371;52.080;5.624;2022-10-13T00:26:05;13.60;94.60
25450;DHT22;13371;52.080;5.624;2022-10-13T00:28:31;13.40;95.00
25450;DHT22;13371;52.080;5.624;2022-10-13T00:30:57;13.30;95.00
25450;DHT22;13371;52.080;5.624;2022-10-13T00:33:23;13.30;95.40
25450;DHT22;13371;52.080;5.624;2022-10-13T00:35:49;13.20;95.50
25450;DHT22;13371;52.080;5.624;2022-10-13T00:38:16;13.40;95.20
25450;DHT22;13371;52.080;5.624;2022-10-13T00:40:50;13.40;95.00
25450;DHT22;13371;52.080;5.624;2022-10-13T00:43:20;13.50;95.10
25450;DHT22;13371;52.080;5.624;2022-10-13T00:45:47;13.50;95.10
25450;DHT22;13371;52.080;5.624;2022-10-13T00:48:19;13.40;95.10
25450;DHT22;13371;52.080;5.624;2022-10-13T00:50:46;13.30;95.40
25450;DHT22;13371;52.080;5.624;2022-10-13T00:53:14;13.30;96.00
25450;DHT22;13371;52.080;5.624;2022-10-13T00:55:42;13.40;95.70
25450;DHT22;13371;52.080;5.624;2022-10-13T00:58:11;13.50;95.10
25450;DHT22;13371;52.080;5.624;2022-10-13T01:00:42;13.40;95.50
25450;DHT22;13371;52.080;5.624;2022-10-13T01:03:09;13.50;95.30
25450;DHT22;13371;52.080;5.624;2022-10-13T01:05:35;13.70;95.00
25450;DHT22;13371;52.080;5.624;2022-10-13T01:08:02;13.60;95.10
25450;DHT22;13371;52.080;5.624;2022-10-13T01:10:32;13.50;95.60
25450;DHT22;13371;52.080;5.624;2022-10-13T01:13:11;13.80;95.40
25450;DHT22;13371;52.080;5.624;2022-10-13T01:15:47;13.70;95.20
25450;DHT22;13371;52.080;5.624;2022-10-13T01:35:23;13.70;95.40
25450;DHT22;13371;52.080;5.624;2022-10-13T01:43:15;13.70;95.50
25450;DHT22;13371;52.080;5.624;2022-10-13T01:45:50;14.10;95.20
25450;DHT22;13371;52.080;5.624;2022-10-13T01:48:18;14.00;94.90
25450;DHT22;13371;52.080;5.624;2022-10-13T01:50:45;14.10;95.10
25450;DHT22;13371;52.080;5.624;2022-10-13T01:53:12;14.00;95.00
25450;DHT22;13371;52.080;5.624;2022-10-13T01:55:49;14.10;95.20
25450;DHT22;13371;52.080;5.624;2022-10-13T01:58:15;14.40;94.80
25450;DHT22;13371;52.080;5.624;2022-10-13T02:00:47;14.40;94.40
25450;DHT22;13371;52.080;5.624;2022-10-13T02:05:47;14.70;94.30
25450;DHT22;13371;52.080;5.624;2022-10-13T02:08:37;14.80;94.20
25450;DHT22;13371;52.080;5.624;2022-10-13T02:11:18;14.80;93.90
25450;DHT22;13371;52.080;5.624;2022-10-13T02:13:58;14.50;94.30
25450;DHT22;13371;52.080;5.624;2022-10-13T02:16:25;14.40;94.60
25450;DHT22;13371;52.080;5.624;2022-10-13T02:18:55;14.30;94.80
25450;DHT22;13371;52.080;5.624;2022-10-13T02:21:21;14.40;94.90
25450;DHT22;13371;52.080;5.624;2022-10-13T02:23:47;14.50;94.80
25450;DHT22;13371;52.080;5.624;2022-10-13T02:26:13;14.40;94.70
25450;DHT22;13371;52.080;5.624;2022-10-13T02:28:39;14.40;94.70
25450;DHT22;13371;52.080;5.624;2022-10-13T02:31:07;14.00;95.80
25450;DHT22;13371;52.080;5.624;2022-10-13T02:33:33;14.30;95.40
25450;DHT22;13371;52.080;5.624;2022-10-13T02:35:58;14.40;94.90
25450;DHT22;13371;52.080;5.624;2022-10-13T02:38:24;14.50;94.70
25450;DHT22;13371;52.080;5.624;2022-10-13T02:40:50;14.80;94.70
25450;DHT22;13371;52.080;5.624;2022-10-13T02:43:15;14.70;94.20
25450;DHT22;13371;52.080;5.624;2022-10-13T02:45:41;14.70;94.50
25450;DHT22;13371;52.080;5.624;2022-10-13T02:48:07;14.70;94.50
25450;DHT22;13371;52.080;5.624;2022-10-13T02:50:32;14.90;94.30
25450;DHT22;13371;52.080;5.624;2022-10-13T02:52:58;14.80;94.20
25450;DHT22;13371;52.080;5.624;2022-10-13T02:55:24;14.60;94.50
25450;DHT22;13371;52.080;5.624;2022-10-13T02:57:49;14.70;94.70
25450;DHT22;13371;52.080;5.624;2022-10-13T03:00:15;14.80;94.50
25450;DHT22;13371;52.080;5.624;2022-10-13T03:02:41;14.80;94.30
25450;DHT22;13371;52.080;5.624;2022-10-13T03:05:07;14.40;95.10
25450;DHT22;13371;52.080;5.624;2022-10-13T03:07:32;14.20;95.30
25450;DHT22;13371;52.080;5.624;2022-10-13T03:09:58;14.10;95.70
25450;DHT22;13371;52.080;5.624;2022-10-13T03:12:24;13.80;96.60
25450;DHT22;13371;52.080;5.624;2022-10-13T03:14:49;13.90;96.00
25450;DHT22;13371;52.080;5.624;2022-10-13T03:17:15;13.90;96.20
25450;DHT22;13371;52.080;5.624;2022-10-13T03:19:40;13.70;96.50
25450;DHT22;13371;52.080;5.624;2022-10-13T03:22:06;13.20;97.90
25450;DHT22;13371;52.080;5.624;2022-10-13T03:24:31;13.60;97.70
25450;DHT22;13371;52.080;5.624;2022-10-13T03:26:57;13.70;97.30
25450;DHT22;13371;52.080;5.624;2022-10-13T03:29:22;13.90;96.80
25450;DHT22;13371;52.080;5.624;2022-10-13T03:31:48;13.90;96.50
25450;DHT22;13371;52.080;5.624;2022-10-13T03:34:15;14.10;96.60
25450;DHT22;13371;52.080;5.624;2022-10-13T03:36:41;14.20;96.10
25450;DHT22;13371;52.080;5.624;2022-10-13T03:39:07;14.10;96.30
25450;DHT22;13371;52.080;5.624;2022-10-13T03:41:33;14.10;96.30
25450;DHT22;13371;52.080;5.624;2022-10-13T03:43:58;13.90;96.50
25450;DHT22;13371;52.080;5.624;2022-10-13T03:46:27;14.20;96.20
25450;DHT22;13371;52.080;5.624;2022-10-13T03:48:54;14.40;96.10
25450;DHT22;13371;52.080;5.624;2022-10-13T03:51:21;14.50;95.60
25450;DHT22;13371;52.080;5.624;2022-10-13T03:53:47;14.30;96.00
25450;DHT22;13371;52.080;5.624;2022-10-13T03:56:16;14.50;95.50
25450;DHT22;13371;52.080;5.624;2022-10-13T03:58:42;14.60;95.50
25450;DHT22;13371;52.080;5.624;2022-10-13T04:01:10;14.70;95.00
25450;DHT22;13371;52.080;5.624;2022-10-13T04:03:36;14.30;95.80
25450;DHT22;13371;52.080;5.624;2022-10-13T04:06:03;14.40;96.00
25450;DHT22;13371;52.080;5.624;2022-10-13T04:08:31;14.50;95.60
25450;DHT22;13371;52.080;5.624;2022-10-13T04:11:01;14.70;95.50
25450;DHT22;13371;52.080;5.624;2022-10-13T04:13:27;14.30;96.00
25450;DHT22;13371;52.080;5.624;2022-10-13T04:15:53;14.50;95.80
25450;DHT22;13371;52.080;5.624;2022-10-13T04:18:19;14.40;95.80
25450;DHT22;13371;52.080;5.624;2022-10-13T04:20:44;14.30;95.80
25450;DHT22;13371;52.080;5.624;2022-10-13T04:23:10;14.30;96.10
25450;DHT22;13371;52.080;5.624;2022-10-13T04:25:37;14.40;96.20
25450;DHT22;13371;52.080;5.624;2022-10-13T04:28:06;14.30;96.30
25450;DHT22;13371;52.080;5.624;2022-10-13T04:30:33;14.70;95.70
25450;DHT22;13371;52.080;5.624;2022-10-13T04:32:59;14.40;95.50
25450;DHT22;13371;52.080;5.624;2022-10-13T04:35:25;14.10;96.60
25450;DHT22;13371;52.080;5.624;2022-10-13T04:37:50;13.50;97.60
25450;DHT22;13371;52.080;5.624;2022-10-13T04:40:16;13.30;98.30
25450;DHT22;13371;52.080;5.624;2022-10-13T04:42:42;13.30;98.50
25450;DHT22;13371;52.080;5.624;2022-10-13T04:45:08;14.00;97.60
25450;DHT22;13371;52.080;5.624;2022-10-13T04:47:34;14.30;97.00
25450;DHT22;13371;52.080;5.624;2022-10-13T04:50:01;14.50;96.00
25450;DHT22;13371;52.080;5.624;2022-10-13T04:52:26;14.50;95.70
25450;DHT22;13371;52.080;5.624;2022-10-13T04:54:52;14.70;95.40
25450;DHT22;13371;52.080;5.624;2022-10-13T04:57:17;14.60;95.90
25450;DHT22;13371;52.080;5.624;2022-10-13T04:59:43;14.50;96.00
25450;DHT22;13371;52.080;5.624;2022-10-13T05:02:08;14.60;96.10
25450;DHT22;13371;52.080;5.624;2022-10-13T05:04:35;14.80;95.60
25450;DHT22;13371;52.080;5.624;2022-10-13T05:07:00;15.00;95.20
25450;DHT22;13371;52.080;5.624;2022-10-13T05:09:26;14.90;95.20
25450;DHT22;13371;52.080;5.624;2022-10-13T05:11:51;15.00;95.30
25450;DHT22;13371;52.080;5.624;2022-10-13T05:14:19;15.10;95.00
25450;DHT22;13371;52.080;5.624;2022-10-13T05:16:45;15.20;94.90
25450;DHT22;13371;52.080;5.624;2022-10-13T05:19:11;15.50;94.40
25450;DHT22;13371;52.080;5.624;2022-10-13T05:21:38;15.40;94.60
25450;DHT22;13371;52.080;5.624;2022-10-13T05:24:04;15.40;94.70
25450;DHT22;13371;52.080;5.624;2022-10-13T05:26:31;15.40;94.90
25450;DHT22;13371;52.080;5.624;2022-10-13T05:29:00;15.30;95.10
25450;DHT22;13371;52.080;5.624;2022-10-13T05:31:27;15.40;94.80
25450;DHT22;13371;52.080;5.624;2022-10-13T05:33:54;15.00;95.20
25450;DHT22;13371;52.080;5.624;2022-10-13T05:36:25;15.00;95.50
25450;DHT22;13371;52.080;5.624;2022-10-13T05:38:52;14.90;96.10
25450;DHT22;13371;52.080;5.624;2022-10-13T05:41:19;14.70;96.40
25450;DHT22;13371;52.080;5.624;2022-10-13T05:43:45;14.50;96.70
25450;DHT22;13371;52.080;5.624;2022-10-13T05:46:11;14.40;97.20
25450;DHT22;13371;52.080;5.624;2022-10-13T05:48:37;14.10;97.60
25450;DHT22;13371;52.080;5.624;2022-10-13T05:51:16;14.10;98.00
25450;DHT22;13371;52.080;5.624;2022-10-13T05:53:46;14.30;97.90
25450;DHT22;13371;52.080;5.624;2022-10-13T05:56:17;14.30;97.40
25450;DHT22;13371;52.080;5.624;2022-10-13T05:58:46;14.50;97.60
25450;DHT22;13371;52.080;5.624;2022-10-13T06:01:17;14.50;97.60
25450;DHT22;13371;52.080;5.624;2022-10-13T06:03:45;14.90;96.90
25450;DHT22;13371;52.080;5.624;2022-10-13T06:06:12;15.20;96.30
25450;DHT22;13371;52.080;5.624;2022-10-13T06:08:38;15.10;96.10
25450;DHT22;13371;52.080;5.624;2022-10-13T06:11:04;14.90;96.50
25450;DHT22;13371;52.080;5.624;2022-10-13T06:13:30;14.60;97.40
25450;DHT22;13371;52.080;5.624;2022-10-13T06:15:56;14.10;98.20
25450;DHT22;13371;52.080;5.624;2022-10-13T06:18:21;14.10;98.40
25450;DHT22;13371;52.080;5.624;2022-10-13T06:20:47;14.40;98.20
25450;DHT22;13371;52.080;5.624;2022-10-13T06:23:12;14.70;97.90
25450;DHT22;13371;52.080;5.624;2022-10-13T06:25:46;14.50;97.70
25450;DHT22;13371;52.080;5.624;2022-10-13T06:28:11;14.60;97.40
25450;DHT22;13371;52.080;5.624;2022-10-13T06:30:37;14.70;97.60
25450;DHT22;13371;52.080;5.624;2022-10-13T06:33:03;14.50;97.50
25450;DHT22;13371;52.080;5.624;2022-10-13T06:35:29;14.10;98.50
25450;DHT22;13371;52.080;5.624;2022-10-13T06:37:56;14.20;98.70
25450;DHT22;13371;52.080;5.624;2022-10-13T06:40:21;14.40;98.40
25450;DHT22;13371;52.080;5.624;2022-10-13T06:42:50;14.70;97.70
25450;DHT22;13371;52.080;5.624;2022-10-13T06:45:16;15.10;97.10
25450;DHT22;13371;52.080;5.624;2022-10-13T06:47:44;15.00;96.80
25450;DHT22;13371;52.080;5.624;2022-10-13T06:50:09;15.20;97.00
25450;DHT22;13371;52.080;5.624;2022-10-13T06:52:35;14.90;97.20
25450;DHT22;13371;52.080;5.624;2022-10-13T06:55:00;14.80;97.90
25450;DHT22;13371;52.080;5.624;2022-10-13T06:57:26;15.00;97.30
25450;DHT22;13371;52.080;5.624;2022-10-13T06:59:51;15.10;97.40
25450;DHT22;13371;52.080;5.624;2022-10-13T07:02:17;15.20;96.90
25450;DHT22;13371;52.080;5.624;2022-10-13T07:04:43;15.20;97.10
25450;DHT22;13371;52.080;5.624;2022-10-13T07:07:08;15.10;96.90
25450;DHT22;13371;52.080;5.624;2022-10-13T07:09:34;15.20;97.20
25450;DHT22;13371;52.080;5.624;2022-10-13T07:11:59;15.50;96.80
25450;DHT22;13371;52.080;5.624;2022-10-13T07:14:25;15.20;97.00
25450;DHT22;13371;52.080;5.624;2022-10-13T07:16:50;15.40;96.70
25450;DHT22;13371;52.080;5.624;2022-10-13T07:19:16;15.40;96.50
25450;DHT22;13371;52.080;5.624;2022-10-13T07:21:41;15.40;97.10
25450;DHT22;13371;52.080;5.624;2022-10-13T07:24:09;15.50;96.70
25450;DHT22;13371;52.080;5.624;2022-10-13T07:26:35;15.40;96.70
25450;DHT22;13371;52.080;5.624;2022-10-13T07:29:00;15.10;97.00
25450;DHT22;13371;52.080;5.624;2022-10-13T07:31:26;15.10;97.50
25450;DHT22;13371;52.080;5.624;2022-10-13T07:33:52;15.40;97.40
25450;DHT22;13371;52.080;5.624;2022-10-13T07:36:18;15.40;96.80
25450;DHT22;13371;52.080;5.624;2022-10-13T07:38:44;15.40;97.20
25450;DHT22;13371;52.080;5.624;2022-10-13T07:41:11;15.40;97.40
25450;DHT22;13371;52.080;5.624;2022-10-13T07:43:37;15.50;97.40
25450;DHT22;13371;52.080;5.624;2022-10-13T07:46:03;15.50;97.30
25450;DHT22;13371;52.080;5.624;2022-10-13T07:48:29;15.50;97.20
25450;DHT22;13371;52.080;5.624;2022-10-13T07:50:55;15.40;97.60
25450;DHT22;13371;52.080;5.624;2022-10-13T07:53:21;15.50;97.40
25450;DHT22;13371;52.080;5.624;2022-10-13T07:55:46;15.30;97.60
25450;DHT22;13371;52.080;5.624;2022-10-13T07:58:12;15.30;98.20
25450;DHT22;13371;52.080;5.624;2022-10-13T08:00:38;15.20;98.60
25450;DHT22;13371;52.080;5.624;2022-10-13T08:03:03;15.50;98.30
25450;DHT22;13371;52.080;5.624;2022-10-13T08:05:29;15.50;98.10
25450;DHT22;13371;52.080;5.624;2022-10-13T08:07:55;15.50;98.10
25450;DHT22;13371;52.080;5.624;2022-10-13T08:10:20;15.30;98.40
25450;DHT22;13371;52.080;5.624;2022-10-13T08:12:46;15.40;98.50
25450;DHT22;13371;52.080;5.624;2022-10-13T08:15:12;15.50;98.50
25450;DHT22;13371;52.080;5.624;2022-10-13T08:17:38;15.60;98.40
25450;DHT22;13371;52.080;5.624;2022-10-13T08:20:04;15.50;98.50
25450;DHT22;13371;52.080;5.624;2022-10-13T08:22:31;15.70;98.30
25450;DHT22;13371;52.080;5.624;2022-10-13T08:24:59;15.90;98.10
25450;DHT22;13371;52.080;5.624;2022-10-13T08:27:26;15.70;98.40
25450;DHT22;13371;52.080;5.624;2022-10-13T08:29:52;15.70;98.40
25450;DHT22;13371;52.080;5.624;2022-10-13T08:32:21;15.90;98.10
25450;DHT22;13371;52.080;5.624;2022-10-13T08:34:48;15.80;98.50
25450;DHT22;13371;52.080;5.624;2022-10-13T08:37:15;15.90;97.90
25450;DHT22;13371;52.080;5.624;2022-10-13T08:39:41;15.80;98.20
25450;DHT22;13371;52.080;5.624;2022-10-13T08:42:33;15.90;98.40
25450;DHT22;13371;52.080;5.624;2022-10-13T08:45:03;15.90;98.20
25450;DHT22;13371;52.080;5.624;2022-10-13T08:47:33;15.50;98.70
25450;DHT22;13371;52.080;5.624;2022-10-13T08:50:04;15.30;99.10
25450;DHT22;13371;52.080;5.624;2022-10-13T08:52:52;15.30;99.60
25450;DHT22;13371;52.080;5.624;2022-10-13T08:55:30;15.30;99.50
25450;DHT22;13371;52.080;5.624;2022-10-13T08:57:58;15.50;99.20
25450;DHT22;13371;52.080;5.624;2022-10-13T09:00:25;15.60;98.70
25450;DHT22;13371;52.080;5.624;2022-10-13T09:02:51;15.40;98.70
25450;DHT22;13371;52.080;5.624;2022-10-13T09:05:40;15.20;98.80
25450;DHT22;13371;52.080;5.624;2022-10-13T09:08:15;15.50;98.80
25450;DHT22;13371;52.080;5.624;2022-10-13T09:10:49;15.50;98.70
25450;DHT22;13371;52.080;5.624;2022-10-13T09:13:15;15.20;98.60
25450;DHT22;13371;52.080;5.624;2022-10-13T09:15:42;15.20;99.30
25450;DHT22;13371;52.080;5.624;2022-10-13T09:18:10;15.20;98.80
25450;DHT22;13371;52.080;5.624;2022-10-13T09:20:37;15.20;99.00
25450;DHT22;13371;52.080;5.624;2022-10-13T09:23:18;15.70;98.50
25450;DHT22;13371;52.080;5.624;2022-10-13T09:25:51;15.50;98.30
25450;DHT22;13371;52.080;5.624;2022-10-13T09:28:29;15.70;98.00
25450;DHT22;13371;52.080;5.624;2022-10-13T09:33:39;16.00;97.60
25450;DHT22;13371;52.080;5.624;2022-10-13T09:36:07;16.10;97.30
25450;DHT22;13371;52.080;5.624;2022-10-13T09:38:36;16.00;97.30
25450;DHT22;13371;52.080;5.624;2022-10-13T09:41:03;16.20;97.50
25450;DHT22;13371;52.080;5.624;2022-10-13T09:46:01;16.30;97.10
25450;DHT22;13371;52.080;5.624;2022-10-13T09:48:32;16.20;97.10
25450;DHT22;13371;52.080;5.624;2022-10-13T09:50:58;16.30;97.20
25450;DHT22;13371;52.080;5.624;2022-10-13T09:53:31;16.20;97.40
25450;DHT22;13371;52.080;5.624;2022-10-13T09:56:18;16.20;97.30
25450;DHT22;13371;52.080;5.624;2022-10-13T10:01:41;16.80;96.80
25450;DHT22;13371;52.080;5.624;2022-10-13T10:04:31;16.70;96.40
25450;DHT22;13371;52.080;5.624;2022-10-13T10:06:58;16.60;96.40
25450;DHT22;13371;52.080;5.624;2022-10-13T10:09:34;16.60;96.70
25450;DHT22;13371;52.080;5.624;2022-10-13T10:12:03;16.70;96.50
25450;DHT22;13371;52.080;5.624;2022-10-13T10:14:36;16.90;96.40
25450;DHT22;13371;52.080;5.624;2022-10-13T10:25:07;16.50;96.60
25450;DHT22;13371;52.080;5.624;2022-10-13T10:27:44;16.70;96.40
25450;DHT22;13371;52.080;5.624;2022-10-13T10:30:20;16.60;96.50
25450;DHT22;13371;52.080;5.624;2022-10-13T10:36:10;16.90;96.20
25450;DHT22;13371;52.080;5.624;2022-10-13T10:38:34;16.80;96.10
25450;DHT22;13371;52.080;5.624;2022-10-13T10:44:11;17.10;95.60
25450;DHT22;13371;52.080;5.624;2022-10-13T10:46:41;17.10;95.60
25450;DHT22;13371;52.080;5.624;2022-10-13T10:49:15;16.90;95.60
25450;DHT22;13371;52.080;5.624;2022-10-13T10:51:41;17.20;95.60
25450;DHT22;13371;52.080;5.624;2022-10-13T10:54:19;17.10;95.90
25450;DHT22;13371;52.080;5.624;2022-10-13T10:56:59;17.00;95.80
25450;DHT22;13371;52.080;5.624;2022-10-13T10:59:48;17.40;95.70
25450;DHT22;13371;52.080;5.624;2022-10-13T11:05:18;16.90;95.80
25450;DHT22;13371;52.080;5.624;2022-10-13T11:12:48;16.70;96.60
25450;DHT22;13371;52.080;5.624;2022-10-13T11:15:46;16.90;96.50
25450;DHT22;13371;52.080;5.624;2022-10-13T11:18:54;17.10;96.30
25450;DHT22;13371;52.080;5.624;2022-10-13T11:21:20;17.10;95.90
25450;DHT22;13371;52.080;5.624;2022-10-13T11:23:48;17.00;96.30
25450;DHT22;13371;52.080;5.624;2022-10-13T11:26:40;17.00;96.40
25450;DHT22;13371;52.080;5.624;2022-10-13T11:29:16;16.90;96.50
25450;DHT22;13371;52.080;5.624;2022-10-13T11:31:56;17.00;96.30
25450;DHT22;13371;52.080;5.624;2022-10-13T11:34:27;16.90;96.10
25450;DHT22;13371;52.080;5.624;2022-10-13T11:36:58;16.80;96.40
25450;DHT22;13371;52.080;5.624;2022-10-13T11:44:53;16.50;96.70
25450;DHT22;13371;52.080;5.624;2022-10-13T11:53:16;15.80;98.00
25450;DHT22;13371;52.080;5.624;2022-10-13T11:58:19;16.40;97.50
25450;DHT22;13371;52.080;5.624;2022-10-13T12:00:50;16.50;97.20
25450;DHT22;13371;52.080;5.624;2022-10-13T12:03:28;16.80;96.60
25450;DHT22;13371;52.080;5.624;2022-10-13T12:05:58;16.70;96.50
25450;DHT22;13371;52.080;5.624;2022-10-13T12:08:24;16.50;97.20
25450;DHT22;13371;52.080;5.624;2022-10-13T12:10:53;16.40;96.90
25450;DHT22;13371;52.080;5.624;2022-10-13T12:13:27;16.10;98.00
25450;DHT22;13371;52.080;5.624;2022-10-13T12:16:04;16.10;98.10
25450;DHT22;13371;52.080;5.624;2022-10-13T12:18:34;16.10;98.20
25450;DHT22;13371;52.080;5.624;2022-10-13T12:21:03;16.10;98.30
25450;DHT22;13371;52.080;5.624;2022-10-13T12:23:31;16.40;97.70
25450;DHT22;13371;52.080;5.624;2022-10-13T12:25:58;16.60;97.30
25450;DHT22;13371;52.080;5.624;2022-10-13T12:28:46;16.40;97.10
25450;DHT22;13371;52.080;5.624;2022-10-13T12:31:19;16.40;97.40
25450;DHT22;13371;52.080;5.624;2022-10-13T12:33:55;16.30;97.70
25450;DHT22;13371;52.080;5.624;2022-10-13T12:36:27;16.30;97.50
25450;DHT22;13371;52.080;5.624;2022-10-13T12:39:06;16.60;97.20
25450;DHT22;13371;52.080;5.624;2022-10-13T12:41:34;16.60;97.00
25450;DHT22;13371;52.080;5.624;2022-10-13T12:44:01;16.50;96.90
25450;DHT22;13371;52.080;5.624;2022-10-13T12:46:57;16.20;97.40
25450;DHT22;13371;52.080;5.624;2022-10-13T12:49:27;16.30;97.70
25450;DHT22;13371;52.080;5.624;2022-10-13T12:54:28;16.30;97.50
25450;DHT22;13371;52.080;5.624;2022-10-13T12:57:00;16.20;98.00
25450;DHT22;13371;52.080;5.624;2022-10-13T12:59:27;16.20;98.30
25450;DHT22;13371;52.080;5.624;2022-10-13T13:01:57;15.90;98.60
25450;DHT22;13371;52.080;5.624;2022-10-13T13:06:54;16.20;97.90
25450;DHT22;13371;52.080;5.624;2022-10-13T13:09:23;16.00;98.30
25450;DHT22;13371;52.080;5.624;2022-10-13T13:12:03;16.30;98.20
25450;DHT22;13371;52.080;5.624;2022-10-13T13:14:41;16.40;97.60
25450;DHT22;13371;52.080;5.624;2022-10-13T13:19:45;16.20;98.10
25450;DHT22;13371;52.080;5.624;2022-10-13T13:22:11;16.20;98.30
25450;DHT22;13371;52.080;5.624;2022-10-13T13:24:36;16.00;99.20
25450;DHT22;13371;52.080;5.624;2022-10-13T13:27:35;15.90;99.10
25450;DHT22;13371;52.080;5.624;2022-10-13T13:30:05;16.20;98.70
25450;DHT22;13371;52.080;5.624;2022-10-13T13:32:34;16.50;97.90
25450;DHT22;13371;52.080;5.624;2022-10-13T13:35:00;16.10;98.30
25450;DHT22;13371;52.080;5.624;2022-10-13T13:37:37;15.80;99.30
25450;DHT22;13371;52.080;5.624;2022-10-13T13:40:05;15.60;99.30
25450;DHT22;13371;52.080;5.624;2022-10-13T13:42:31;15.70;99.30
25450;DHT22;13371;52.080;5.624;2022-10-13T13:44:57;15.80;99.30
25450;DHT22;13371;52.080;5.624;2022-10-13T13:47:25;16.20;98.70
25450;DHT22;13371;52.080;5.624;2022-10-13T13:49:52;16.20;98.40
25450;DHT22;13371;52.080;5.624;2022-10-13T13:52:18;15.90;98.50
25450;DHT22;13371;52.080;5.624;2022-10-13T13:54:44;16.10;98.90
25450;DHT22;13371;52.080;5.624;2022-10-13T13:57:11;16.10;99.00
25450;DHT22;13371;52.080;5.624;2022-10-13T13:59:38;16.10;99.20
25450;DHT22;13371;52.080;5.624;2022-10-13T14:02:05;16.00;99.60
25450;DHT22;13371;52.080;5.624;2022-10-13T14:04:30;15.90;99.80
25450;DHT22;13371;52.080;5.624;2022-10-13T14:06:56;15.90;99.40
25450;DHT22;13371;52.080;5.624;2022-10-13T14:09:22;15.80;99.70
25450;DHT22;13371;52.080;5.624;2022-10-13T14:11:47;15.80;99.70
25450;DHT22;13371;52.080;5.624;2022-10-13T14:14:13;16.10;99.40
25450;DHT22;13371;52.080;5.624;2022-10-13T14:16:39;16.30;99.60
25450;DHT22;13371;52.080;5.624;2022-10-13T14:19:06;16.80;99.10
25450;DHT22;13371;52.080;5.624;2022-10-13T14:21:31;16.80;98.40
25450;DHT22;13371;52.080;5.624;2022-10-13T14:23:57;16.20;99.10
25450;DHT22;13371;52.080;5.624;2022-10-13T14:26:23;16.50;99.80
25450;DHT22;13371;52.080;5.624;2022-10-13T14:28:48;16.90;98.80
25450;DHT22;13371;52.080;5.624;2022-10-13T14:31:14;16.50;98.70
25450;DHT22;13371;52.080;5.624;2022-10-13T14:33:40;16.20;98.80
25450;DHT22;13371;52.080;5.624;2022-10-13T14:36:06;16.40;98.70
25450;DHT22;13371;52.080;5.624;2022-10-13T14:38:33;16.10;99.00
25450;DHT22;13371;52.080;5.624;2022-10-13T14:41:04;16.50;98.90
25450;DHT22;13371;52.080;5.624;2022-10-13T14:43:30;16.40;98.40
25450;DHT22;13371;52.080;5.624;2022-10-13T14:46:00;16.60;98.60
25450;DHT22;13371;52.080;5.624;2022-10-13T14:48:28;16.60;98.30
25450;DHT22;13371;52.080;5.624;2022-10-13T14:50:54;16.90;97.70
25450;DHT22;13371;52.080;5.624;2022-10-13T14:53:19;16.90;97.70
25450;DHT22;13371;52.080;5.624;2022-10-13T14:55:45;16.70;97.80
25450;DHT22;13371;52.080;5.624;2022-10-13T14:58:11;16.60;97.90
25450;DHT22;13371;52.080;5.624;2022-10-13T15:00:37;16.50;98.10
25450;DHT22;13371;52.080;5.624;2022-10-13T15:03:03;17.00;97.90
25450;DHT22;13371;52.080;5.624;2022-10-13T15:05:29;16.80;97.60
25450;DHT22;13371;52.080;5.624;2022-10-13T15:07:55;16.60;97.90
25450;DHT22;13371;52.080;5.624;2022-10-13T15:10:20;16.40;98.60
25450;DHT22;13371;52.080;5.624;2022-10-13T15:12:46;16.50;98.40
25450;DHT22;13371;52.080;5.624;2022-10-13T15:15:11;16.30;98.50
25450;DHT22;13371;52.080;5.624;2022-10-13T15:17:37;16.40;98.70
25450;DHT22;13371;52.080;5.624;2022-10-13T15:20:04;16.20;99.10
25450;DHT22;13371;52.080;5.624;2022-10-13T15:22:30;16.10;99.40
25450;DHT22;13371;52.080;5.624;2022-10-13T15:24:55;16.30;98.90
25450;DHT22;13371;52.080;5.624;2022-10-13T15:27:21;16.50;98.40
25450;DHT22;13371;52.080;5.624;2022-10-13T15:29:47;16.40;98.80
25450;DHT22;13371;52.080;5.624;2022-10-13T15:32:15;16.10;98.90
25450;DHT22;13371;52.080;5.624;2022-10-13T15:34:45;16.30;98.90
25450;DHT22;13371;52.080;5.624;2022-10-13T15:37:11;16.40;98.50
25450;DHT22;13371;52.080;5.624;2022-10-13T15:39:37;16.30;98.80
25450;DHT22;13371;52.080;5.624;2022-10-13T15:42:04;16.40;98.90
25450;DHT22;13371;52.080;5.624;2022-10-13T15:44:29;16.70;98.30
25450;DHT22;13371;52.080;5.624;2022-10-13T15:46:56;16.70;98.20
25450;DHT22;13371;52.080;5.624;2022-10-13T15:49:22;16.90;98.30
25450;DHT22;13371;52.080;5.624;2022-10-13T15:51:49;16.90;97.40
25450;DHT22;13371;52.080;5.624;2022-10-13T15:54:15;17.00;97.70
25450;DHT22;13371;52.080;5.624;2022-10-13T15:56:40;16.80;97.40
25450;DHT22;13371;52.080;5.624;2022-10-13T15:59:06;16.60;97.90
25450;DHT22;13371;52.080;5.624;2022-10-13T16:01:31;16.70;97.90
25450;DHT22;13371;52.080;5.624;2022-10-13T16:03:57;16.70;98.10
25450;DHT22;13371;52.080;5.624;2022-10-13T16:06:23;16.50;97.90
25450;DHT22;13371;52.080;5.624;2022-10-13T16:08:49;16.40;98.30
25450;DHT22;13371;52.080;5.624;2022-10-13T16:11:17;16.60;98.30
25450;DHT22;13371;52.080;5.624;2022-10-13T16:13:49;16.80;98.10
25450;DHT22;13371;52.080;5.624;2022-10-13T16:16:15;16.70;97.90
25450;DHT22;13371;52.080;5.624;2022-10-13T16:18:42;16.70;98.10
25450;DHT22;13371;52.080;5.624;2022-10-13T16:21:19;16.70;98.00
25450;DHT22;13371;52.080;5.624;2022-10-13T16:23:46;16.80;97.70
25450;DHT22;13371;52.080;5.624;2022-10-13T16:26:12;16.70;97.50
25450;DHT22;13371;52.080;5.624;2022-10-13T16:28:38;16.50;98.20
25450;DHT22;13371;52.080;5.624;2022-10-13T16:31:05;16.20;98.40
25450;DHT22;13371;52.080;5.624;2022-10-13T16:33:35;16.20;98.80
25450;DHT22;13371;52.080;5.624;2022-10-13T16:36:02;15.80;99.70
25450;DHT22;13371;52.080;5.624;2022-10-13T16:38:28;16.00;99.30
25450;DHT22;13371;52.080;5.624;2022-10-13T16:40:54;16.10;99.10
25450;DHT22;13371;52.080;5.624;2022-10-13T16:43:19;16.00;99.40
25450;DHT22;13371;52.080;5.624;2022-10-13T16:45:54;16.00;99.30
25450;DHT22;13371;52.080;5.624;2022-10-13T16:48:20;16.10;98.90
25450;DHT22;13371;52.080;5.624;2022-10-13T16:50:46;16.30;98.60
25450;DHT22;13371;52.080;5.624;2022-10-13T16:53:12;15.90;98.70
25450;DHT22;13371;52.080;5.624;2022-10-13T16:55:40;16.10;99.20